Time;durP1;ratioP1;P1;durP2;ratioP2;P2;SDS_P1;SDS_P2;PMS_P1;PMS_P2;Temp;Humidity;BMP_temperature;BMP_pressure;BME280_temperature;BME280_humidity;BME280_pressure;Samples;Min_cycle;Max_cycle;Signal;HPM_P1;HPM_P2
2021/03/23 00:02:09;;;;;;;1.77;1.20;;;;;;;5.29;46.66;102438.13;5025134;28;20488;-70
2021/03/23 00:04:35;;;;;;;1.58;0.38;;;;;;;5.27;46.43;102440.72;5006484;28;20663;-70
2021/03/23 00:07:01;;;;;;;3.80;0.75;;;;;;;3.80;49.60;102447.78;5008735;28;20116;-69
2021/03/23 00:09:26;;;;;;;3.17;0.55;;;;;;;4.83;47.77;102446.34;5007973;28;20025;-70
2021/03/23 00:11:52;;;;;;;1.45;0.30;;;;;;;4.58;48.18;102437.47;5009352;28;20046;-70
2021/03/23 00:14:17;;;;;;;5.28;0.57;;;;;;;4.86;47.47;102442.94;4994617;28;20485;-70
2021/03/23 00:16:45;;;;;;;2.65;0.60;;;;;;;4.88;47.16;102436.94;5009478;28;20034;-70
2021/03/23 00:19:13;;;;;;;1.70;0.40;;;;;;;4.97;47.04;102441.34;5021905;28;20537;-69
2021/03/23 00:21:40;;;;;;;2.83;0.38;;;;;;;4.95;46.83;102436.16;5007089;28;20049;-70
2021/03/23 00:24:06;;;;;;;3.10;0.40;;;;;;;5.04;46.51;102437.94;5007341;28;20069;-70
2021/03/23 00:26:31;;;;;;;6.53;0.55;;;;;;;5.06;46.72;102441.41;5008921;28;20089;-70
2021/03/23 00:28:57;;;;;;;2.38;0.38;;;;;;;4.84;46.90;102433.41;5007396;28;20034;-70
2021/03/23 00:31:28;;;;;;;0.90;0.40;;;;;;;4.86;47.02;102432.59;5007982;28;20026;-70
2021/03/23 00:33:54;;;;;;;1.90;0.30;;;;;;;4.93;46.81;102439.59;5009074;28;20029;-70
2021/03/23 00:36:23;;;;;;;2.15;0.32;;;;;;;4.58;47.35;102440.06;5008631;28;20034;-70
2021/03/23 00:38:51;;;;;;;1.52;0.30;;;;;;;5.01;46.74;102437.91;4989926;28;20065;-70
2021/03/23 00:41:17;;;;;;;2.28;0.47;;;;;;;4.83;47.09;102439.47;5011179;28;20447;-70
2021/03/23 00:43:42;;;;;;;4.13;0.45;;;;;;;4.91;46.24;102431.78;5007237;28;20029;-70
2021/03/23 00:46:08;;;;;;;1.45;0.32;;;;;;;4.90;46.52;102436.94;5022919;28;20493;-70
2021/03/23 00:48:34;;;;;;;1.77;0.30;;;;;;;4.71;47.12;102435.88;4991256;28;20685;-70
2021/03/23 00:50:59;;;;;;;2.70;0.43;;;;;;;5.00;46.39;102438.78;5007826;28;20119;-70
2021/03/23 00:53:25;;;;;;;3.55;0.40;;;;;;;4.71;46.62;102439.34;5007316;28;20443;-70
2021/03/23 00:55:51;;;;;;;1.95;0.50;;;;;;;5.14;45.91;102437.16;5009177;28;20033;-70
2021/03/23 00:58:17;;;;;;;1.83;0.35;;;;;;;4.46;47.45;102434.78;5006167;28;20034;-70
2021/03/23 01:00:42;;;;;;;1.48;0.28;;;;;;;4.94;46.29;102425.75;5007444;28;20378;-70
2021/03/23 01:03:08;;;;;;;1.35;0.40;;;;;;;4.81;46.67;102415.28;5038766;28;20489;-70
2021/03/23 01:05:35;;;;;;;2.67;0.32;;;;;;;4.95;46.29;102419.72;5005650;28;20129;-70
2021/03/23 01:08:01;;;;;;;1.23;0.35;;;;;;;4.69;46.76;102420.31;5007637;28;20296;-69
2021/03/23 01:10:29;;;;;;;0.52;0.20;;;;;;;4.14;47.84;102409.38;5021760;28;20037;-69
2021/03/23 01:12:55;;;;;;;5.95;0.30;;;;;;;3.97;48.96;102412.66;5005148;28;20025;-70
2021/03/23 01:15:25;;;;;;;2.40;0.93;;;;;;;4.17;48.14;102409.44;5003070;28;20034;-70
2021/03/23 01:17:51;;;;;;;4.22;0.95;;;;;;;4.62;47.40;102410.75;5020759;28;20034;-70
2021/03/23 01:20:19;;;;;;;7.70;0.40;;;;;;;4.48;47.89;102404.59;5005534;28;20057;-70
2021/03/23 01:22:44;;;;;;;2.45;0.30;;;;;;;4.38;48.23;102404.47;5006192;28;20111;-69
2021/03/23 01:25:11;;;;;;;4.78;0.52;;;;;;;4.01;49.14;102400.63;5006136;28;20045;-70
2021/03/23 01:27:37;;;;;;;1.90;0.40;;;;;;;4.58;48.06;102396.03;5007275;28;20032;-70
2021/03/23 01:30:09;;;;;;;1.80;0.40;;;;;;;4.10;49.10;102392.13;5007415;28;20022;-70
2021/03/23 01:32:35;;;;;;;;;;;;;;;3.68;50.38;102382.97;5007421;28;20033;-69
2021/03/23 01:35:01;;;;;;;1.77;0.52;;;;;;;4.12;49.38;102383.50;5005662;28;19984;-69
2021/03/23 01:37:26;;;;;;;2.80;0.68;;;;;;;4.17;49.46;102373.22;5006961;28;20045;-69
2021/03/23 01:39:52;;;;;;;5.22;0.70;;;;;;;4.21;49.16;102374.97;4990187;28;20044;-69
2021/03/23 01:42:19;;;;;;;4.15;1.25;;;;;;;4.29;49.04;102375.91;5007842;28;20030;-69
2021/03/23 01:44:46;;;;;;;5.47;1.27;;;;;;;3.97;50.01;102378.16;5008444;28;20144;-69
2021/03/23 01:47:12;;;;;;;3.88;1.08;;;;;;;4.16;49.56;102374.03;5020636;28;20028;-69
2021/03/23 01:49:45;;;;;;;5.65;1.15;;;;;;;3.92;50.17;102362.59;5007777;28;20117;-69
2021/03/23 01:52:18;;;;;;;2.55;1.38;;;;;;;4.18;49.65;102364.56;5037386;28;20489;-69
2021/03/23 01:55:05;;;;;;;2.80;1.15;;;;;;;4.11;49.67;102367.97;4988515;28;20033;-69
2021/03/23 01:57:33;;;;;;;2.97;1.02;;;;;;;4.60;48.51;102371.03;5006535;28;20485;-69
2021/03/23 01:59:59;;;;;;;7.05;1.45;;;;;;;4.01;49.90;102380.78;5005937;28;20038;-69
2021/03/23 02:02:29;;;;;;;3.58;1.20;;;;;;;4.52;48.78;102380.44;5021025;28;20037;-69
2021/03/23 02:04:55;;;;;;;8.10;1.55;;;;;;;3.79;50.32;102371.91;5002854;28;20149;-69
2021/03/23 02:07:21;;;;;;;5.43;1.60;;;;;;;4.06;50.10;102370.50;5006205;28;20496;-69
2021/03/23 02:09:51;;;;;;;7.10;2.20;;;;;;;4.30;49.47;102367.31;5004204;28;20042;-69
2021/03/23 02:12:21;;;;;;;3.65;1.67;;;;;;;4.63;48.70;102363.28;4988723;28;20100;-69
2021/03/23 02:14:48;;;;;;;4.20;1.88;;;;;;;4.43;49.36;102360.50;5005931;28;20032;-69
2021/03/23 02:17:13;;;;;;;6.32;1.35;;;;;;;4.15;49.80;102374.91;5005491;28;20081;-69
2021/03/23 02:19:39;;;;;;;7.28;1.92;;;;;;;4.47;49.52;102369.19;5005715;28;20560;-69
2021/03/23 02:22:04;;;;;;;3.90;1.88;;;;;;;4.39;49.72;102364.81;5023532;28;20046;-69
2021/03/23 02:24:30;;;;;;;7.55;1.58;;;;;;;4.40;49.67;102348.41;5002193;28;20037;-69
2021/03/23 02:26:55;;;;;;;4.32;1.77;;;;;;;4.65;48.80;102346.03;5003353;28;20034;-69
2021/03/23 02:29:21;;;;;;;6.38;1.60;;;;;;;4.38;49.75;102357.88;5006117;28;20109;-69
2021/03/23 02:31:50;;;;;;;6.53;1.95;;;;;;;4.45;49.37;102345.00;5018945;28;20065;-69
2021/03/23 02:34:20;;;;;;;10.35;2.47;;;;;;;4.25;49.90;102345.66;5007446;28;20034;-69
2021/03/23 02:36:47;;;;;;;5.85;2.25;;;;;;;4.17;50.54;102342.16;4987841;28;20037;-69
2021/03/23 02:39:17;;;;;;;7.60;2.15;;;;;;;3.94;50.95;102335.00;5037179;28;20489;-69
2021/03/23 02:41:42;;;;;;;5.43;2.00;;;;;;;3.49;52.18;102337.91;5004316;28;20034;-69
2021/03/23 02:44:09;;;;;;;4.47;2.10;;;;;;;3.52;52.52;102331.06;5008957;28;20046;-69
2021/03/23 02:46:35;;;;;;;4.95;2.10;;;;;;;3.98;51.41;102344.56;5012138;28;20197;-69
2021/03/23 02:49:02;;;;;;;9.95;2.47;;;;;;;4.31;50.08;102335.38;5013142;28;20101;-69
2021/03/23 02:51:27;;;;;;;3.63;2.00;;;;;;;4.49;50.10;102328.66;5012068;28;20040;-69
2021/03/23 02:53:53;;;;;;;4.93;1.90;;;;;;;4.67;49.33;102333.97;5027357;28;20477;-69
2021/03/23 02:56:18;;;;;;;7.35;2.50;;;;;;;3.98;51.22;102331.63;5013566;28;20112;-69
2021/03/23 02:58:44;;;;;;;3.20;2.53;;;;;;;4.68;49.56;102330.53;5011601;28;20555;-69
2021/03/23 03:01:11;;;;;;;5.22;2.75;;;;;;;4.69;49.17;102324.50;5011361;28;20485;-69
2021/03/23 03:03:38;;;;;;;4.28;1.70;;;;;;;4.81;48.90;102327.19;4996204;28;20060;-69
2021/03/23 03:06:04;;;;;;;7.72;2.78;;;;;;;4.01;51.05;102331.63;5011995;28;20044;-68
2021/03/23 03:08:30;;;;;;;8.07;2.60;;;;;;;4.31;50.47;102329.34;4994372;28;20024;-69
2021/03/23 03:10:56;;;;;;;4.35;2.70;;;;;;;4.52;49.93;102329.56;5012143;28;20037;-69
2021/03/23 03:13:22;;;;;;;3.33;2.05;;;;;;;4.29;50.45;102331.03;5014133;28;20030;-68
2021/03/23 03:15:53;;;;;;;7.80;2.78;;;;;;;4.34;50.34;102334.53;5026862;28;20045;-69
2021/03/23 03:18:19;;;;;;;8.90;2.45;;;;;;;4.48;49.71;102347.63;5009679;28;20042;-69
2021/03/23 03:20:46;;;;;;;8.00;2.50;;;;;;;4.69;49.48;102344.34;5011643;28;21350;-69
2021/03/23 03:23:12;;;;;;;7.88;2.88;;;;;;;4.71;49.36;102335.72;5011298;28;20041;-69
2021/03/23 03:25:37;;;;;;;10.15;3.78;;;;;;;4.79;48.82;102336.66;5027008;28;20551;-69
2021/03/23 03:28:04;;;;;;;7.50;2.42;;;;;;;4.75;49.23;102345.28;5014361;28;20042;-70
2021/03/23 03:30:32;;;;;;;7.93;2.97;;;;;;;4.44;50.14;102349.31;5012314;28;20071;-69
2021/03/23 03:32:59;;;;;;;8.18;2.70;;;;;;;4.84;49.13;102347.94;5010819;28;20547;-69
2021/03/23 03:35:28;;;;;;;7.78;2.58;;;;;;;4.91;49.02;102353.19;5012142;28;20037;-69
2021/03/23 03:37:53;;;;;;;6.75;3.17;;;;;;;4.63;49.73;102353.81;5011294;28;20034;-69
2021/03/23 03:40:28;;;;;;;6.13;2.95;;;;;;;4.60;49.97;102358.94;5011945;28;20034;-69
2021/03/23 03:42:54;;;;;;;8.23;3.83;;;;;;;4.81;49.36;102360.88;5008751;28;20053;-69
2021/03/23 03:45:21;;;;;;;5.57;2.40;;;;;;;4.97;49.12;102356.69;5009735;28;20112;-69
2021/03/23 03:47:50;;;;;;;5.28;3.03;;;;;;;4.59;49.80;102366.72;5009838;28;20037;-69
2021/03/23 03:50:17;;;;;;;4.20;2.42;;;;;;;4.76;49.72;102369.44;5011374;28;20588;-69
2021/03/23 03:52:43;;;;;;;12.00;3.08;;;;;;;4.49;50.24;102359.72;5010282;28;20477;-70
2021/03/23 03:55:12;;;;;;;11.90;3.20;;;;;;;4.75;49.71;102358.22;5006252;28;20107;-69
2021/03/23 03:57:38;;;;;;;14.95;3.75;;;;;;;4.54;49.88;102358.91;4994143;28;20568;-69
2021/03/23 04:00:05;;;;;;;13.75;3.72;;;;;;;4.53;50.18;102358.91;5007644;28;20042;-69
2021/03/23 04:02:37;;;;;;;7.75;2.72;;;;;;;4.57;50.43;102355.47;5004878;28;20042;-68
2021/03/23 04:05:04;;;;;;;10.90;3.42;;;;;;;4.93;49.44;102354.06;5007236;28;20104;-69
2021/03/23 04:07:31;;;;;;;16.67;3.28;;;;;;;5.14;49.05;102361.97;5007332;28;20516;-69
2021/03/23 04:09:56;;;;;;;6.45;3.30;;;;;;;4.81;49.74;102354.78;5007974;28;20091;-69
2021/03/23 04:12:22;;;;;;;7.35;3.53;;;;;;;4.96;49.46;102356.69;5007791;28;20045;-69
2021/03/23 04:14:47;;;;;;;6.57;3.53;;;;;;;4.41;50.47;102357.94;5005919;28;20057;-69
2021/03/23 04:17:13;;;;;;;15.55;3.72;;;;;;;4.72;49.71;102362.50;5007289;28;20050;-69
2021/03/23 04:19:39;;;;;;;6.10;3.97;;;;;;;4.83;49.60;102356.56;5007324;28;20034;-69
2021/03/23 04:22:05;;;;;;;7.90;4.13;;;;;;;4.86;50.05;102360.03;5004117;28;20042;-69
2021/03/23 04:24:30;;;;;;;9.13;3.55;;;;;;;4.74;49.98;102351.28;5009810;28;20046;-69
2021/03/23 04:26:56;;;;;;;9.07;3.42;;;;;;;4.72;50.22;102353.03;5008402;28;20448;-69
2021/03/23 04:29:21;;;;;;;13.07;4.57;;;;;;;4.36;51.03;102351.84;5008363;28;20049;-69
2021/03/23 04:31:47;;;;;;;11.35;4.38;;;;;;;4.58;50.31;102342.53;5010661;28;20400;-71
2021/03/23 04:34:14;;;;;;;5.80;3.28;;;;;;;4.37;50.62;102353.56;5010460;28;20116;-69
2021/03/23 04:36:41;;;;;;;8.02;4.45;;;;;;;4.58;50.50;102347.69;5009270;28;20057;-68
2021/03/23 04:39:10;;;;;;;10.50;4.40;;;;;;;4.71;49.81;102346.09;5010453;28;20037;-69
2021/03/23 04:41:36;;;;;;;13.40;3.80;;;;;;;4.52;50.44;102344.19;5008302;28;20038;-69
2021/03/23 04:44:03;;;;;;;8.80;3.75;;;;;;;4.90;49.49;102341.97;5041496;28;20412;-69
2021/03/23 04:46:29;;;;;;;12.60;4.80;;;;;;;4.75;50.08;102342.69;5023237;28;20096;-69
2021/03/23 04:48:56;;;;;;;11.27;4.18;;;;;;;4.98;49.35;102340.28;5009183;28;20021;-69
2021/03/23 04:51:24;;;;;;;11.27;3.83;;;;;;;5.10;49.11;102344.69;5016877;28;20090;-70
2021/03/23 04:53:57;;;;;;;8.75;4.20;;;;;;;4.54;50.24;102351.16;5009750;28;20033;-69
2021/03/23 04:56:29;;;;;;;13.27;4.40;;;;;;;4.89;49.36;102349.72;5006514;28;20052;-70
2021/03/23 04:58:55;;;;;;;12.02;4.43;;;;;;;4.93;49.16;102338.53;5024754;28;20492;-70
2021/03/23 05:01:21;;;;;;;15.38;5.10;;;;;;;4.52;50.41;102333.84;5008478;28;20560;-69
2021/03/23 05:03:52;;;;;;;13.38;4.95;;;;;;;4.20;51.34;102337.00;5022914;28;20132;-70
2021/03/23 05:06:18;;;;;;;11.82;5.15;;;;;;;4.84;49.74;102329.78;5007323;28;20485;-70
2021/03/23 05:08:43;;;;;;;10.48;4.65;;;;;;;4.66;49.97;102327.06;5009186;28;20037;-70
2021/03/23 05:11:12;;;;;;;11.68;4.85;;;;;;;4.09;51.91;102328.25;4990604;28;20034;-69
2021/03/23 05:13:37;;;;;;;11.57;4.43;;;;;;;4.64;50.40;102313.25;5006772;28;20065;-70
2021/03/23 05:16:03;;;;;;;11.68;4.93;;;;;;;4.52;50.73;102333.84;5008035;28;20133;-70
2021/03/23 05:18:29;;;;;;;9.35;4.70;;;;;;;4.17;51.31;102336.97;5007024;28;20038;-69
2021/03/23 05:20:55;;;;;;;15.95;6.07;;;;;;;4.72;50.12;102339.19;5006642;28;20103;-70
2021/03/23 05:23:20;;;;;;;13.65;5.05;;;;;;;4.92;49.53;102329.91;5004635;28;20034;-70
2021/03/23 05:25:46;;;;;;;11.82;4.93;;;;;;;4.94;49.51;102332.47;5023946;28;20531;-70
2021/03/23 05:28:13;;;;;;;11.70;5.82;;;;;;;4.98;49.59;102331.66;5007370;28;20108;-70
2021/03/23 05:30:39;;;;;;;16.80;5.65;;;;;;;4.56;50.33;102333.88;5006887;28;20033;-69
2021/03/23 05:33:06;;;;;;;14.07;4.63;;;;;;;4.82;49.66;102328.91;5040819;28;20046;-70
2021/03/23 05:35:32;;;;;;;12.73;6.05;;;;;;;4.49;50.36;102328.66;5022773;28;20038;-70
2021/03/23 05:37:58;;;;;;;17.73;5.85;;;;;;;4.75;49.91;102331.47;5008413;28;20052;-70
2021/03/23 05:40:40;;;;;;;10.75;4.55;;;;;;;4.73;49.87;102340.94;5009826;28;20080;-69
2021/03/23 05:43:09;;;;;;;15.82;6.18;;;;;;;4.57;50.67;102347.72;5007245;28;20103;-70
2021/03/23 05:45:41;;;;;;;15.57;4.93;;;;;;;4.97;49.36;102348.94;5006728;28;20037;-70
2021/03/23 05:48:06;;;;;;;14.63;5.50;;;;;;;4.78;49.67;102357.38;4993264;28;20034;-70
2021/03/23 05:50:36;;;;;;;13.77;5.90;;;;;;;4.62;50.04;102359.84;4991253;28;20041;-70
2021/03/23 05:53:04;;;;;;;15.50;5.20;;;;;;;4.51;50.50;102365.78;5062482;23;20773;-72
2021/03/23 05:55:50;;;;;;;12.27;5.10;;;;;;;4.81;49.74;102363.47;5027204;28;20052;-70
2021/03/23 05:58:21;;;;;;;15.15;5.13;;;;;;;4.54;50.79;102369.28;5041008;28;20025;-71
2021/03/23 06:01:02;;;;;;;12.20;5.35;;;;;;;5.05;49.51;102365.38;5016166;28;20040;-67
2021/03/23 06:03:33;;;;;;;16.20;5.55;;;;;;;4.74;49.64;102359.06;5052463;28;20036;-68
2021/03/23 06:06:37;;;;;;;14.75;6.03;;;;;;;5.13;49.22;102370.63;5059806;28;20040;-68
2021/03/23 06:09:03;;;;;;;19.75;6.53;;;;;;;5.04;49.57;102363.66;5046494;28;20036;-68
2021/03/23 06:11:34;;;;;;;12.45;5.90;;;;;;;4.83;50.15;102374.69;5047149;28;20670;-68
2021/03/23 06:14:26;;;;;;;16.45;6.63;;;;;;;4.60;50.67;102371.03;5061697;28;20103;-69
2021/03/23 06:17:27;;;;;;;16.33;7.47;;;;;;;4.94;49.97;102368.75;5056822;28;20527;-68
2021/03/23 06:20:04;;;;;;;17.40;8.27;;;;;;;5.10;49.38;102374.91;5043398;28;20037;-67
2021/03/23 06:22:55;;;;;;;18.08;7.38;;;;;;;5.38;49.25;102383.75;5024127;28;20017;-69
2021/03/23 06:25:46;;;;;;;17.83;6.75;;;;;;;5.51;48.97;102388.13;5031643;28;20043;-69
2021/03/23 06:28:24;;;;;;;14.85;7.22;;;;;;;5.28;48.99;102385.41;5061702;28;20031;-69
2021/03/23 06:30:57;;;;;;;22.08;8.07;;;;;;;5.46;48.86;102382.94;5042640;28;20111;-70
2021/03/23 06:33:25;;;;;;;13.45;7.85;;;;;;;5.41;48.19;102386.34;5057390;28;20068;-69
2021/03/23 06:36:04;;;;;;;23.52;8.43;;;;;;;5.40;48.96;102382.88;5042549;28;20036;-69
2021/03/23 06:38:39;;;;;;;20.10;8.82;;;;;;;5.12;49.63;102381.84;5060660;28;20036;-67
2021/03/23 06:41:28;;;;;;;19.05;8.32;;;;;;;4.99;49.51;102377.44;5029687;28;20587;-69
2021/03/23 06:43:59;;;;;;;19.52;8.73;;;;;;;4.99;50.16;102383.50;5046267;28;20043;-68
2021/03/23 06:46:31;;;;;;;18.25;8.57;;;;;;;4.86;50.28;102385.94;5060156;28;20070;-67
2021/03/23 06:49:07;;;;;;;33.40;10.38;;;;;;;4.84;50.27;102381.59;5061499;28;20040;-68
2021/03/23 06:51:34;;;;;;;18.77;9.50;;;;;;;4.56;51.53;102388.25;5057036;28;20120;-68
2021/03/23 06:54:18;;;;;;;22.23;9.77;;;;;;;4.72;50.68;102389.28;5058176;28;20111;-67
2021/03/23 06:56:45;;;;;;;25.77;9.98;;;;;;;4.12;52.45;102382.63;5057173;28;20033;-68
2021/03/23 06:59:14;;;;;;;22.38;9.93;;;;;;;4.76;50.77;102375.47;5044461;28;20044;-68
2021/03/23 07:01:44;;;;;;;21.48;10.13;;;;;;;4.72;51.26;102378.94;5048246;28;20479;-66
2021/03/23 07:04:16;;;;;;;22.48;10.18;;;;;;;4.77;50.84;102376.38;5029964;28;20116;-67
2021/03/23 07:06:42;;;;;;;23.17;10.70;;;;;;;4.77;50.46;102371.19;5056939;28;20045;-69
2021/03/23 07:09:08;;;;;;;22.83;10.48;;;;;;;4.93;50.45;102362.72;5061255;28;20035;-67
2021/03/23 07:11:54;;;;;;;26.52;12.40;;;;;;;4.80;51.19;102371.22;5042345;28;20135;-67
2021/03/23 07:14:48;;;;;;;32.33;12.35;;;;;;;4.54;51.80;102368.38;5047494;28;20043;-67
2021/03/23 07:17:24;;;;;;;34.45;11.63;;;;;;;5.10;50.20;102360.25;5055850;28;20052;-68
2021/03/23 07:19:49;;;;;;;30.75;12.73;;;;;;;4.20;51.99;102363.75;5041358;28;20387;-68
2021/03/23 07:22:21;;;;;;;30.98;12.68;;;;;;;4.34;51.94;102370.78;5042927;28;20036;-68
2021/03/23 07:24:57;;;;;;;30.60;13.35;;;;;;;4.38;51.61;102363.06;5062481;28;20210;-69
2021/03/23 07:27:27;;;;;;;30.92;12.82;;;;;;;4.87;50.50;102354.00;5058203;28;20044;-69
2021/03/23 07:30:13;;;;;;;21.40;11.50;;;;;;;4.73;50.94;102353.88;5061697;28;20040;-69
2021/03/23 07:32:49;;;;;;;37.50;12.63;;;;;;;5.03;50.29;102353.25;5067429;28;20032;-67
2021/03/23 07:35:35;;;;;;;30.98;13.25;;;;;;;4.85;50.59;102351.38;5067366;28;20129;-67
2021/03/23 07:38:10;;;;;;;23.85;11.27;;;;;;;4.55;51.24;102347.69;5046279;28;20103;-69
2021/03/23 07:40:41;;;;;;;30.23;12.13;;;;;;;4.55;51.62;102342.50;5050133;28;20403;-70
2021/03/23 07:43:25;;;;;;;32.97;13.45;;;;;;;4.39;51.62;102343.25;5055283;28;20048;-68
2021/03/23 07:46:18;;;;;;;38.17;14.52;;;;;;;4.16;52.41;102345.56;5070442;28;20047;-67
2021/03/23 07:48:49;;;;;;;29.05;14.57;;;;;;;4.43;52.25;102339.78;5066335;28;20048;-67
2021/03/23 07:51:24;;;;;;;30.08;13.30;;;;;;;4.56;51.91;102341.63;5063640;28;20036;-70
2021/03/23 07:53:50;;;;;;;34.67;13.98;;;;;;;4.63;51.18;102345.16;5035441;28;20303;-69
2021/03/23 07:56:45;;;;;;;27.58;12.40;;;;;;;4.95;50.66;102349.78;5053912;28;20075;-67
2021/03/23 07:59:17;;;;;;;26.60;12.43;;;;;;;5.23;49.87;102349.09;5050358;28;20137;-69
2021/03/23 08:02:20;;;;;;;27.08;12.10;;;;;;;4.64;50.86;102352.94;5050937;28;20407;-68
2021/03/23 08:05:03;;;;;;;30.95;15.30;;;;;;;4.51;51.59;102355.41;5066566;28;20075;-68
2021/03/23 08:07:38;;;;;;;32.92;13.70;;;;;;;4.75;51.12;102359.94;5063245;28;20036;-67
2021/03/23 08:10:03;;;;;;;29.73;14.15;;;;;;;5.11;50.06;102361.97;5061795;28;20236;-67
2021/03/23 08:13:07;;;;;;;34.13;15.52;;;;;;;3.71;53.90;102362.31;5029362;28;20509;-68
2021/03/23 08:15:47;;;;;;;32.45;13.98;;;;;;;4.59;50.92;102358.97;5039454;28;20040;-67
2021/03/23 08:18:43;;;;;;;31.50;12.85;;;;;;;4.81;50.74;102358.28;5041468;28;20035;-68
2021/03/23 08:21:46;;;;;;;23.27;11.43;;;;;;;4.57;51.62;102352.91;5044646;28;20048;-67
2021/03/23 08:24:37;;;;;;;32.00;12.82;;;;;;;4.86;50.51;102353.13;4966803;28;20056;-68
2021/03/23 08:27:28;;;;;;;25.03;12.27;;;;;;;4.40;51.65;102363.94;5055173;28;20037;-69
2021/03/23 08:29:57;;;;;;;29.63;12.38;;;;;;;4.35;51.94;102362.19;5056315;28;20282;-69
2021/03/23 08:32:35;;;;;;;34.88;12.32;;;;;;;4.74;50.90;102361.66;5050521;28;20121;-69
2021/03/23 08:35:06;;;;;;;28.08;11.25;;;;;;;5.00;50.33;102359.28;5072135;28;20036;-69
2021/03/23 08:37:41;;;;;;;24.20;11.43;;;;;;;5.21;48.94;102357.69;5072085;28;20036;-68
2021/03/23 08:40:13;;;;;;;31.20;14.27;;;;;;;5.05;50.29;102356.72;5072962;28;20052;-68
2021/03/23 08:42:42;;;;;;;35.00;13.75;;;;;;;4.86;51.02;102360.03;5048929;28;20330;-69
2021/03/23 08:45:24;;;;;;;31.55;13.07;;;;;;;5.22;49.93;102357.72;5061786;28;20377;-69
2021/03/23 08:48:02;;;;;;;23.05;10.77;;;;;;;5.65;49.31;102370.91;5044794;28;20112;-68
2021/03/23 08:50:30;;;;;;;29.42;13.90;;;;;;;5.76;48.84;102370.09;5039648;28;20032;-67
2021/03/23 08:52:58;;;;;;;33.33;13.70;;;;;;;5.87;48.15;102377.06;5022062;28;20039;-69
2021/03/23 08:55:24;;;;;;;31.63;13.68;;;;;;;5.64;48.47;102378.69;5026141;28;20046;-69
2021/03/23 08:57:59;;;;;;;32.38;13.07;;;;;;;5.54;49.39;102382.97;5043583;28;20055;-68
2021/03/23 09:00:37;;;;;;;25.98;11.55;;;;;;;5.49;49.34;102387.25;5032019;28;20119;-67
2021/03/23 09:03:09;;;;;;;36.92;13.98;;;;;;;5.42;49.96;102382.91;5047796;28;20519;-69
2021/03/23 09:05:57;;;;;;;28.15;13.60;;;;;;;5.95;48.53;102392.66;5047174;28;20063;-68
2021/03/23 09:08:46;;;;;;;32.72;13.00;;;;;;;5.96;48.33;102391.78;5049505;28;20180;-70
2021/03/23 09:11:12;;;;;;;37.65;13.88;;;;;;;5.38;49.93;102396.72;5042722;28;20519;-67
2021/03/23 09:13:37;;;;;;;29.67;13.32;;;;;;;5.48;49.57;102395.91;5060779;28;20101;-67
2021/03/23 09:16:15;;;;;;;25.45;12.27;;;;;;;5.01;49.97;102404.22;5040073;28;20095;-67
2021/03/23 09:19:04;;;;;;;25.63;10.15;;;;;;;5.04;49.76;102404.25;5060731;28;20047;-68
2021/03/23 09:21:51;;;;;;;24.38;10.90;;;;;;;5.44;48.27;102401.94;5062515;28;20039;-69
2021/03/23 09:24:24;;;;;;;27.33;11.60;;;;;;;6.01;47.34;102390.06;5046469;28;20044;-71
2021/03/23 09:26:52;;;;;;;20.48;10.52;;;;;;;6.21;46.47;102392.72;5058220;28;20032;-68
2021/03/23 09:29:54;;;;;;;36.03;10.30;;;;;;;7.17;44.55;102396.28;5046807;28;20136;-69
2021/03/23 09:32:24;;;;;;;17.33;9.10;;;;;;;7.90;43.23;102395.25;5041336;28;20040;-66
2021/03/23 09:35:05;;;;;;;19.88;9.15;;;;;;;8.34;41.65;102394.16;5060003;28;20033;-67
2021/03/23 09:37:40;;;;;;;18.48;9.27;;;;;;;9.27;40.71;102394.25;5059561;28;20036;-68
2021/03/23 09:40:20;;;;;;;15.32;7.35;;;;;;;9.68;38.55;102398.19;5060526;28;20090;-68
2021/03/23 09:42:52;;;;;;;19.23;8.73;;;;;;;9.92;37.20;102396.16;5065034;28;20040;-68
2021/03/23 09:45:36;;;;;;;13.80;8.02;;;;;;;9.56;39.09;102400.91;5041765;28;20033;-68
2021/03/23 09:48:14;;;;;;;15.50;6.15;;;;;;;9.19;38.45;102393.50;5039229;28;20043;-68
2021/03/23 09:50:52;;;;;;;15.95;6.80;;;;;;;9.75;37.30;102397.22;5061547;28;20270;-68
2021/03/23 09:53:39;;;;;;;17.33;8.13;;;;;;;9.92;37.98;102396.16;5048543;28;20045;-70
2021/03/23 09:56:20;;;;;;;11.98;6.13;;;;;;;9.76;37.19;102396.31;5026438;28;20052;-68
2021/03/23 09:58:56;;;;;;;17.92;7.07;;;;;;;10.07;37.60;102401.19;5029603;28;20095;-69
2021/03/23 10:01:23;;;;;;;13.73;5.38;;;;;;;10.08;36.66;102389.88;5043370;28;20043;-67
2021/03/23 10:03:51;;;;;;;12.95;6.20;;;;;;;10.75;35.46;102390.59;5060030;28;20111;-68
2021/03/23 10:06:18;;;;;;;11.38;6.15;;;;;;;10.41;35.39;102393.75;5042503;28;20165;-69
2021/03/23 10:09:07;;;;;;;11.05;5.43;;;;;;;11.00;35.27;102388.44;5045655;28;20043;-69
2021/03/23 10:11:38;;;;;;;16.35;6.05;;;;;;;11.61;33.64;102383.78;5050920;28;20115;-69
2021/03/23 10:14:10;;;;;;;10.00;5.57;;;;;;;12.09;33.78;102382.81;5047169;28;20135;-69
2021/03/23 10:16:38;;;;;;;9.88;4.43;;;;;;;11.52;33.53;102375.25;5061474;28;20048;-69
2021/03/23 10:19:05;;;;;;;9.35;4.80;;;;;;;12.67;32.61;102368.31;5042292;28;20484;-68
2021/03/23 10:21:34;;;;;;;11.02;5.47;;;;;;;12.37;32.07;102382.19;5074591;28;20039;-68
2021/03/23 10:24:13;;;;;;;11.73;5.60;;;;;;;11.64;33.48;102380.22;5053294;28;20040;-69
2021/03/23 10:26:44;;;;;;;17.02;6.05;;;;;;;11.19;34.31;102377.63;5042139;28;20047;-69
2021/03/23 10:29:17;;;;;;;9.20;5.95;;;;;;;11.32;34.64;102388.75;5025009;28;20035;-67
2021/03/23 10:31:52;;;;;;;9.80;4.68;;;;;;;11.87;33.50;102383.28;5040211;28;20136;-67
2021/03/23 10:34:23;;;;;;;9.60;4.38;;;;;;;12.11;32.47;102388.00;5041674;28;20035;-68
2021/03/23 10:37:04;;;;;;;12.20;5.07;;;;;;;11.28;33.40;102387.94;5045918;28;20772;-68
2021/03/23 10:39:42;;;;;;;8.93;3.83;;;;;;;11.29;34.38;102389.66;5057085;28;20033;-68
2021/03/23 10:42:31;;;;;;;11.48;4.03;;;;;;;11.72;33.54;102388.81;5029782;28;20055;-68
2021/03/23 10:45:25;;;;;;;10.27;4.93;;;;;;;11.87;33.03;102383.28;5027323;28;20637;-68
2021/03/23 10:48:16;;;;;;;10.88;5.32;;;;;;;11.29;33.94;102387.06;5058837;28;20073;-68
2021/03/23 10:50:45;;;;;;;13.70;5.63;;;;;;;11.25;34.95;102382.75;5041409;28;20089;-68
2021/03/23 10:53:20;;;;;;;8.63;5.97;;;;;;;11.49;34.04;102380.56;5029185;28;20040;-68
2021/03/23 10:55:50;;;;;;;13.32;6.47;;;;;;;11.31;34.25;102380.03;5025835;28;20048;-68
2021/03/23 10:58:17;;;;;;;10.30;6.10;;;;;;;12.31;33.01;102383.16;5030102;28;20603;-69
2021/03/23 11:00:46;;;;;;;8.80;5.85;;;;;;;11.82;33.18;102379.91;5061149;28;20033;-68
2021/03/23 11:03:18;;;;;;;14.55;5.75;;;;;;;11.36;34.61;102375.56;5040369;28;20070;-68
2021/03/23 11:05:50;;;;;;;12.10;6.15;;;;;;;11.70;34.69;102385.34;5048110;28;20050;-68
2021/03/23 11:08:16;;;;;;;17.02;6.03;;;;;;;12.54;32.40;102377.41;5065515;28;20033;-68
2021/03/23 11:10:43;;;;;;;11.55;6.28;;;;;;;11.63;32.86;102383.75;5045934;28;20036;-67
2021/03/23 11:13:13;;;;;;;11.38;5.75;;;;;;;12.00;32.69;102389.13;5060608;28;20079;-68
2021/03/23 11:15:45;;;;;;;10.93;5.80;;;;;;;12.34;32.76;102387.50;5065154;28;20037;-67
2021/03/23 11:18:36;;;;;;;15.38;6.00;;;;;;;12.10;32.44;102383.69;5065127;28;20484;-70
2021/03/23 11:21:04;;;;;;;9.90;5.83;;;;;;;11.80;33.02;102381.69;5031569;28;20132;-69
2021/03/23 11:23:32;;;;;;;7.88;5.22;;;;;;;11.72;34.13;102380.94;5050128;28;20287;-68
2021/03/23 11:25:59;;;;;;;10.50;4.88;;;;;;;10.45;35.07;102393.69;5061189;28;20131;-69
2021/03/23 11:28:26;;;;;;;13.55;5.22;;;;;;;10.55;36.09;102395.28;5048609;28;20024;-68
2021/03/23 11:30:51;;;;;;;11.68;5.57;;;;;;;10.79;36.11;102383.53;5063104;28;20923;-69
2021/03/23 11:33:17;;;;;;;14.07;7.07;;;;;;;10.99;35.04;102386.69;5056533;28;20037;-68
2021/03/23 11:35:45;;;;;;;13.95;6.68;;;;;;;11.26;35.34;102384.47;5062812;28;20459;-68
2021/03/23 11:38:11;;;;;;;13.38;5.40;;;;;;;11.65;34.37;102381.97;5043862;28;20510;-70
2021/03/23 11:40:39;;;;;;;8.15;5.22;;;;;;;11.68;33.31;102381.91;5048518;28;20493;-68
2021/03/23 11:43:05;;;;;;;12.25;5.80;;;;;;;11.29;34.17;102384.44;5039329;28;20048;-66
2021/03/23 11:45:39;;;;;;;14.00;6.05;;;;;;;11.56;33.99;102383.03;5066790;28;20028;-67
2021/03/23 11:48:12;;;;;;;7.90;5.20;;;;;;;12.05;33.48;102383.78;5063279;28;20052;-67